Airport Name : Tulsa Intl

Other Name : Tulsa Intl

ICAO : KTUL

IATA : TUL

FAA : TUL

Latitude : 36.198389

Longitude : -95.888111

Country : United States

Local Date and Time : 20 Jul 2024 02:28

 

TAF (Terminal Aerodrome Forecast)

KTUL 200520Z 2006/2106 09004KT P6SM BKN250 FM201100 VRB05KT P6SM BKN100

 

METAR (METeorological Aerodrome Report)

KTUL 200653Z 13003KT 10SM SCT120 SCT200 22/16 A3003 RMK AO2 SLP159 T02170161

KTUL 200553Z 04003KT 10SM FEW120 SCT250 23/16 A3004 RMK AO2 SLP164 T02280161 10289 20211 403060167 55001

KTUL 200453Z 11003KT 10SM FEW120 SCT250 23/16 A3003 RMK AO2 SLP162 T02280161

KTUL 200353Z 09004KT 10SM SCT250 24/17 A3005 RMK AO2 SLP167 T02390167